Ar Rutbah (Kv), Iraq

5:58 PM AST on July 24, 2016 (GMT +0300)
Ar Rutbah (KV) | | Change Station

Elev 2510 ft 33.05 °N, 40.32 °E | Updated 74 days ago

Clear
Clear
92 °F
Feels Like 92 °F
N
9
Wind Variable Wind from WNW
Gusts mph

Today
High -- | Low -- °F
--% Chance of Precip.
Yesterday
High -- | Low -- °F
Precip. -- in
Pressure 29.84 in
Visibility 6.2 miles
Clouds Clear
Dew Point 50 °F
Humidity 24%
Rainfall 0.00 in
Snow Depth Not available.
5:26 AM 7:23 PM
Waning Gibbous, 75% visible
METAR KQMH 101955Z AUTO 13003KT 9999 CLR 20/03 A3016 RMK AO2 SLP104 T01960034
Pressure 29.84 in
Visibility 6.2 miles
Clouds Clear
Dew Point 50 °F
Humidity 24%
Rainfall 0.00 in
Snow Depth Not available.
5:26 AM 7:23 PM
Waning Gibbous, 75% visible
METAR KQMH 101955Z AUTO 13003KT 9999 CLR 20/03 A3016 RMK AO2 SLP104 T01960034

10-Day Weather Forecast

No radar image for this location.
×

Almanac

Astronomy

Jul. 24, 2016 Rise Set
Actual Time
Civil Twilight
Nautical Twilight
Astronomical Twilight
Moon
Length of Visible Light
Length of Day
Tomorrow will be .
, % of the Moon is Illuminated

Today's Extremes

Country Highs Country Lows

Community

WunderPhotos

Upload Photos

1,927,071 photos uploaded!

WunderBlog® & News

Nearby

Air Quality

  Air Quality AQ Index Pollutant
Not available.

Snow Depth

Station Depth Elevation

Earthquake Activity

City Distance Mag. Time & Date
Minimum magnitude displayed is 2.5.

Coastal Water Temperatures

Place Temperature

Stations

Nearby Weather Stations

Station Location Temp. Windchill Dew Point Humidity Wind Precip. Elev Updated Type